Time;durP1;ratioP1;P1;durP2;ratioP2;P2;SDS_P1;SDS_P2;PMS_P1;PMS_P2;Temp;Humidity;BMP_temperature;BMP_pressure;BME280_temperature;BME280_humidity;BME280_pressure;Samples;Min_cycle;Max_cycle;Signal;HPM_P1;HPM_P2
2023/05/18 00:00:20;;;;;;;10.83;4.80;;;12.60;99.90;;;;;;5057695;28;20450;-54
2023/05/18 00:02:49;;;;;;;7.83;4.00;;;12.50;99.90;;;;;;5059301;28;20445;-55
2023/05/18 00:05:17;;;;;;;7.33;3.50;;;12.40;99.90;;;;;;5070510;28;20191;-56
2023/05/18 00:07:43;;;;;;;8.10;3.90;;;12.40;99.90;;;;;;5065291;28;20469;-54
2023/05/18 00:10:10;;;;;;;9.33;6.13;;;12.40;99.90;;;;;;5071100;28;20961;-56
2023/05/18 00:12:36;;;;;;;6.80;3.47;;;12.40;99.90;;;;;;5071029;28;20963;-55
2023/05/18 00:15:02;;;;;;;8.53;4.10;;;12.40;99.90;;;;;;5071200;28;20481;-55
2023/05/18 00:17:27;;;;;;;12.13;5.90;;;12.30;99.90;;;;;;5065144;28;20188;-55
2023/05/18 00:19:53;;;;;;;10.23;4.70;;;12.30;99.90;;;;;;5068427;28;20461;-54
2023/05/18 00:22:18;;;;;;;8.47;4.67;;;12.20;99.90;;;;;;5069801;28;20622;-54
2023/05/18 00:24:45;;;;;;;10.37;4.40;;;12.30;99.90;;;;;;5069575;28;20199;-54
2023/05/18 00:27:11;;;;;;;9.10;4.33;;;12.40;99.90;;;;;;5062505;28;20264;-55
2023/05/18 00:29:37;;;;;;;8.37;4.47;;;12.30;99.90;;;;;;5069679;28;20763;-54
2023/05/18 00:32:03;;;;;;;11.27;4.67;;;12.30;99.90;;;;;;5067423;28;20299;-57
2023/05/18 00:34:28;;;;;;;12.03;5.10;;;12.20;99.90;;;;;;5069258;28;20758;-56
2023/05/18 00:36:54;;;;;;;12.00;4.80;;;12.20;99.90;;;;;;5067599;28;20567;-55
2023/05/18 00:39:20;;;;;;;7.53;4.00;;;12.20;99.90;;;;;;5064491;28;20214;-54
2023/05/18 00:41:45;;;;;;;6.87;3.77;;;12.20;99.90;;;;;;5073590;28;20684;-55
2023/05/18 00:44:11;;;;;;;5.03;3.80;;;12.00;99.90;;;;;;5065690;28;20180;-55
2023/05/18 00:46:36;;;;;;;7.30;3.40;;;11.90;99.90;;;;;;5080188;28;20583;-56
2023/05/18 00:49:02;;;;;;;8.00;4.00;;;11.90;99.90;;;;;;5067113;28;20192;-55
2023/05/18 00:51:30;;;;;;;10.17;3.97;;;11.90;99.90;;;;;;5070666;28;20225;-56
2023/05/18 00:53:57;;;;;;;12.57;4.77;;;11.80;99.90;;;;;;5066639;28;20560;-54
2023/05/18 00:56:23;;;;;;;9.73;4.40;;;11.70;99.90;;;;;;5073145;28;20930;-55
2023/05/18 00:58:56;;;;;;;9.50;3.70;;;11.80;99.90;;;;;;5078434;28;20449;-54
2023/05/18 01:01:35;;;;;;;8.00;3.73;;;12.00;99.90;;;;;;5073836;28;20494;-55
2023/05/18 01:04:02;;;;;;;6.77;3.63;;;11.80;99.90;;;;;;5063240;28;20532;-54
2023/05/18 01:06:34;;;;;;;7.17;3.70;;;11.70;99.90;;;;;;5066649;28;20443;-55
2023/05/18 01:09:03;;;;;;;4.10;3.17;;;11.70;99.90;;;;;;5066464;28;21055;-54
2023/05/18 01:12:00;;;;;;;6.00;3.70;;;11.80;99.90;;;;;;5065581;28;20536;-55
2023/05/18 01:14:50;;;;;;;6.43;3.70;;;11.70;99.90;;;;;;5067466;28;20564;-55
2023/05/18 01:17:50;;;;;;;7.80;4.20;;;11.70;99.90;;;;;;5074487;28;20514;-54
2023/05/18 01:20:23;;;;;;;8.10;4.43;;;11.70;99.90;;;;;;5072331;28;21041;-55
2023/05/18 01:23:19;;;;;;;9.30;5.30;;;11.70;99.90;;;;;;5069007;28;20444;-55
2023/05/18 01:25:54;;;;;;;8.70;5.30;;;11.60;99.90;;;;;;5071937;28;20446;-55
2023/05/18 01:28:28;;;;;;;11.93;5.07;;;11.50;99.90;;;;;;5074549;28;20445;-55
2023/05/18 01:30:55;;;;;;;8.20;4.10;;;11.50;99.90;;;;;;5061264;28;20443;-55
2023/05/18 01:33:21;;;;;;;6.63;4.50;;;11.40;99.90;;;;;;5061124;28;20442;-55
2023/05/18 01:35:47;;;;;;;13.30;4.20;;;11.40;99.90;;;;;;5076531;28;20473;-55
2023/05/18 01:38:15;;;;;;;10.37;4.57;;;11.40;99.90;;;;;;5059118;28;20188;-55
2023/05/18 01:40:56;;;;;;;11.07;4.10;;;11.40;99.90;;;;;;5070530;28;20448;-53
2023/05/18 01:43:28;;;;;;;11.00;4.10;;;11.30;99.90;;;;;;5068836;28;20443;-54
2023/05/18 01:46:00;;;;;;;7.67;4.27;;;11.30;99.90;;;;;;5067006;28;20444;-55
2023/05/18 01:48:26;;;;;;;7.17;3.17;;;11.10;99.90;;;;;;5061168;28;20982;-53
2023/05/18 01:50:56;;;;;;;6.07;3.27;;;11.10;99.90;;;;;;5061772;28;20454;-55
2023/05/18 01:53:24;;;;;;;5.77;3.33;;;11.10;99.90;;;;;;5069534;28;20496;-55
2023/05/18 01:55:52;;;;;;;7.03;3.67;;;11.10;99.90;;;;;;5066682;28;20453;-55
2023/05/18 01:58:20;;;;;;;8.07;3.97;;;11.10;99.90;;;;;;5067596;28;20477;-53
2023/05/18 02:00:46;;;;;;;8.10;4.20;;;11.10;99.90;;;;;;5063867;28;20446;-55
2023/05/18 02:03:13;;;;;;;6.93;3.10;;;11.30;99.90;;;;;;5067146;28;20503;-55
2023/05/18 02:05:39;;;;;;;5.13;3.57;;;11.10;99.90;;;;;;5065391;28;20812;-54
2023/05/18 02:08:04;;;;;;;8.80;3.37;;;11.20;99.90;;;;;;5062298;28;20472;-56
2023/05/18 02:10:30;;;;;;;7.40;3.97;;;11.10;99.90;;;;;;5070286;28;20183;-55
2023/05/18 02:12:56;;;;;;;9.60;4.27;;;11.00;99.90;;;;;;5079019;28;20445;-54
2023/05/18 02:15:21;;;;;;;7.70;4.00;;;11.00;99.90;;;;;;5066112;28;20249;-53
2023/05/18 02:17:47;;;;;;;4.80;3.00;;;11.00;99.90;;;;;;5059928;28;20661;-53
2023/05/18 02:20:17;;;;;;;8.67;4.13;;;10.90;99.90;;;;;;5066095;28;20266;-56
2023/05/18 02:22:43;;;;;;;5.20;3.93;;;10.70;99.90;;;;;;5059480;28;20195;-54
2023/05/18 02:25:08;;;;;;;3.60;2.77;;;10.60;99.90;;;;;;5072298;28;20456;-56
2023/05/18 02:27:35;;;;;;;8.43;3.87;;;10.60;99.90;;;;;;5070016;28;20448;-53
2023/05/18 02:30:03;;;;;;;6.87;4.13;;;10.70;99.90;;;;;;5065903;28;20563;-55
2023/05/18 02:32:31;;;;;;;6.10;3.27;;;10.70;99.90;;;;;;5063943;28;20452;-55
2023/05/18 02:35:01;;;;;;;8.40;3.53;;;10.60;99.90;;;;;;5069688;28;20482;-54
2023/05/18 02:37:27;;;;;;;7.60;4.00;;;10.60;99.90;;;;;;5064549;28;21131;-56
2023/05/18 02:39:52;;;;;;;7.37;3.50;;;10.70;99.90;;;;;;5057979;28;20446;-54
2023/05/18 02:42:18;;;;;;;9.40;3.90;;;10.70;99.90;;;;;;5073683;28;20464;-55
2023/05/18 02:44:43;;;;;;;8.33;3.53;;;10.60;99.90;;;;;;5070337;28;20267;-53
2023/05/18 02:47:09;;;;;;;5.90;3.30;;;10.70;99.90;;;;;;5070814;28;20199;-54
2023/05/18 02:49:35;;;;;;;6.30;3.40;;;10.60;99.90;;;;;;5066891;28;20270;-55
2023/05/18 02:52:00;;;;;;;5.40;3.20;;;10.60;99.90;;;;;;5074952;28;20202;-54
2023/05/18 02:54:26;;;;;;;8.43;3.43;;;10.50;99.90;;;;;;5072346;28;20207;-54
2023/05/18 02:56:55;;;;;;;8.07;3.70;;;10.50;99.90;;;;;;5071188;28;20231;-55
2023/05/18 02:59:21;;;;;;;3.70;3.03;;;10.50;99.90;;;;;;5066358;28;20703;-54
2023/05/18 03:01:46;;;;;;;7.87;3.20;;;10.50;99.90;;;;;;5065407;28;20453;-54
2023/05/18 03:04:12;;;;;;;5.90;3.70;;;10.40;1.00;;;;;;5076046;28;20586;-54
2023/05/18 03:06:39;;;;;;;6.60;4.00;;;10.40;1.00;;;;;;5063230;28;20270;-55
2023/05/18 03:09:04;;;;;;;8.17;4.40;;;10.40;1.00;;;;;;5056900;28;20964;-54
2023/05/18 03:11:30;;;;;;;7.80;4.83;;;10.40;1.00;;;;;;5070232;28;20511;-55
2023/05/18 03:13:56;;;;;;;8.37;4.00;;;10.40;1.00;;;;;;5074245;28;20256;-54
2023/05/18 03:16:27;;;;;;;6.80;4.73;;;10.30;1.00;;;;;;5070924;28;20670;-55
2023/05/18 03:18:57;;;;;;;9.80;4.30;;;10.30;1.00;;;;;;5082697;28;20825;-55
2023/05/18 03:21:23;;;;;;;7.30;3.90;;;10.40;1.00;;;;;;5071987;28;20998;-54
2023/05/18 03:23:49;;;;;;;7.23;3.67;;;10.30;1.00;;;;;;5069740;28;20460;-55
2023/05/18 03:26:15;;;;;;;8.43;3.63;;;10.30;1.00;;;;;;5070984;28;20458;-55
2023/05/18 03:28:41;;;;;;;8.70;3.60;;;10.40;1.00;;;;;;5075118;28;20450;-55
2023/05/18 03:31:06;;;;;;;12.20;4.10;;;10.40;1.00;;;;;;5062938;28;20453;-54
2023/05/18 03:33:32;;;;;;;8.40;4.20;;;10.30;1.00;;;;;;5081543;28;20184;-54
2023/05/18 03:36:02;;;;;;;7.40;3.87;;;10.40;1.00;;;;;;5066305;28;20209;-55
2023/05/18 03:38:28;;;;;;;5.93;4.27;;;10.40;1.00;;;;;;5071770;28;20453;-55
2023/05/18 03:40:54;;;;;;;7.67;3.97;;;10.40;99.90;;;;;;5078632;28;20441;-55
2023/05/18 03:43:20;;;;;;;5.50;3.80;;;10.30;99.90;;;;;;5070173;28;20304;-55
2023/05/18 03:45:45;;;;;;;9.37;5.70;;;10.30;99.90;;;;;;5068472;28;20545;-54
2023/05/18 03:48:11;;;;;;;8.33;4.40;;;10.10;99.90;;;;;;5071053;28;20195;-54
2023/05/18 03:50:37;;;;;;;6.13;3.23;;;9.90;1.00;;;;;;5067961;28;20327;-53
2023/05/18 03:53:02;;;;;;;3.93;3.50;;;9.80;1.00;;;;;;5065727;28;20195;-54
2023/05/18 03:55:28;;;;;;;12.40;4.20;;;9.80;1.00;;;;;;5071502;28;20577;-54
2023/05/18 03:57:54;;;;;;;6.43;3.70;;;9.80;1.00;;;;;;5070400;28;20500;-54
2023/05/18 04:00:20;;;;;;;4.80;3.10;;;9.90;1.00;;;;;;5066258;28;20939;-54
2023/05/18 04:02:46;;;;;;;8.10;4.20;;;9.90;1.00;;;;;;5072736;28;20183;-54
2023/05/18 04:05:12;;;;;;;9.63;3.60;;;10.20;1.00;;;;;;5071621;28;20465;-55
2023/05/18 04:07:42;;;;;;;9.10;3.50;;;10.30;99.90;;;;;;5068183;28;20192;-55
2023/05/18 04:10:12;;;;;;;9.07;3.40;;;10.40;99.90;;;;;;5076361;28;20200;-55
2023/05/18 04:12:38;;;;;;;4.73;2.93;;;10.40;99.90;;;;;;5078480;28;20924;-55
2023/05/18 04:15:05;;;;;;;10.50;3.33;;;10.40;99.90;;;;;;5066414;28;21117;-54
2023/05/18 04:17:30;;;;;;;7.37;3.30;;;10.40;99.90;;;;;;5070703;28;20533;-54
2023/05/18 04:19:56;;;;;;;7.70;3.53;;;10.60;99.90;;;;;;5066000;28;20937;-54
2023/05/18 04:22:22;;;;;;;5.67;3.20;;;10.70;99.90;;;;;;5077353;28;20469;-55
2023/05/18 04:24:47;;;;;;;8.10;3.73;;;10.70;99.90;;;;;;5067784;28;20192;-54
2023/05/18 04:27:13;;;;;;;8.07;3.00;;;10.90;99.90;;;;;;5070686;28;20206;-55
2023/05/18 04:29:42;;;;;;;9.93;3.47;;;11.00;99.90;;;;;;5082552;28;20187;-54
2023/05/18 04:32:09;;;;;;;7.50;3.23;;;11.10;99.90;;;;;;5080068;28;21022;-54
2023/05/18 04:34:36;;;;;;;8.73;3.00;;;11.20;99.90;;;;;;5076204;28;20528;-55
2023/05/18 04:37:05;;;;;;;9.50;3.63;;;11.30;99.90;;;;;;5073037;28;20536;-55
2023/05/18 04:39:33;;;;;;;11.90;3.30;;;11.30;99.90;;;;;;5074720;28;20664;-55
2023/05/18 04:41:59;;;;;;;6.30;3.57;;;10.10;99.90;;;;;;5074378;28;20487;-56
2023/05/18 04:44:28;;;;;;;6.50;3.00;;;11.30;99.90;;;;;;5079612;28;20450;-55
2023/05/18 04:46:55;;;;;;;9.50;3.80;;;11.30;99.90;;;;;;5077620;28;20464;-55
2023/05/18 04:49:21;;;;;;;7.50;3.67;;;11.00;99.90;;;;;;5077271;28;20830;-54
2023/05/18 04:51:54;;;;;;;10.40;3.37;;;11.00;99.90;;;;;;5080036;28;20445;-57
2023/05/18 04:54:22;;;;;;;5.33;3.30;;;10.80;99.90;;;;;;5066169;28;20511;-56
2023/05/18 04:56:48;;;;;;;7.57;3.53;;;10.70;99.90;;;;;;5078901;28;21054;-55
2023/05/18 04:59:13;;;;;;;8.10;3.20;;;10.80;99.90;;;;;;5067583;28;20488;-55
2023/05/18 05:01:39;;;;;;;6.40;3.50;;;10.90;99.90;;;;;;5075714;28;20458;-55
2023/05/18 05:04:05;;;;;;;8.90;3.73;;;11.10;99.90;;;;;;5070236;28;20238;-56
2023/05/18 05:06:30;;;;;;;7.80;4.33;;;11.10;99.90;;;;;;5076723;28;20188;-58
2023/05/18 05:08:56;;;;;;;6.13;3.17;;;11.10;99.90;;;;;;5069962;28;20454;-55
2023/05/18 05:11:22;;;;;;;6.03;3.10;;;11.20;99.90;;;;;;5076111;28;20191;-55
2023/05/18 05:13:47;;;;;;;4.27;2.90;;;11.30;99.90;;;;;;5069750;28;20189;-56
2023/05/18 05:16:13;;;;;;;6.57;2.90;;;11.40;99.90;;;;;;5075917;28;20233;-55
2023/05/18 05:18:38;;;;;;;7.93;2.50;;;11.40;99.90;;;;;;5065423;28;20190;-55
2023/05/18 05:21:05;;;;;;;7.20;3.23;;;11.50;99.90;;;;;;5068256;28;20194;-56
2023/05/18 05:23:31;;;;;;;4.93;2.93;;;11.70;99.90;;;;;;5074460;28;20188;-54
2023/05/18 05:25:56;;;;;;;3.10;2.53;;;11.70;99.90;;;;;;5073384;28;20453;-54
2023/05/18 05:28:22;;;;;;;8.03;3.77;;;11.80;99.90;;;;;;5075910;28;20227;-53
2023/05/18 05:30:47;;;;;;;6.57;3.17;;;11.90;99.90;;;;;;5068767;28;20187;-56
2023/05/18 05:33:13;;;;;;;4.73;2.80;;;11.90;99.90;;;;;;5077705;28;20279;-55
2023/05/18 05:35:39;;;;;;;8.00;3.30;;;12.00;99.90;;;;;;5072229;28;20205;-55
2023/05/18 05:38:05;;;;;;;7.67;3.40;;;12.20;99.90;;;;;;5070806;28;20536;-54
2023/05/18 05:40:31;;;;;;;10.83;3.40;;;12.40;99.90;;;;;;5074909;28;20187;-54
2023/05/18 05:42:57;;;;;;;4.50;3.50;;;12.60;99.90;;;;;;5074080;28;20476;-56
2023/05/18 05:45:22;;;;;;;6.53;2.90;;;12.70;99.90;;;;;;5080146;28;20196;-56
2023/05/18 05:47:49;;;;;;;8.37;3.00;;;12.80;99.90;;;;;;5074549;28;20183;-55
2023/05/18 05:50:14;;;;;;;7.90;3.00;;;13.00;99.90;;;;;;5069073;28;20869;-56
2023/05/18 05:52:40;;;;;;;6.23;3.40;;;13.00;99.90;;;;;;5063578;28;20446;-56
2023/05/18 05:55:06;;;;;;;7.20;2.80;;;13.20;99.90;;;;;;5052452;28;20207;-55
2023/05/18 05:57:31;;;;;;;9.40;2.70;;;13.30;99.90;;;;;;5083801;28;20220;-56
2023/05/18 05:59:57;;;;;;;5.90;2.77;;;13.30;99.90;;;;;;5083417;28;20543;-56
2023/05/18 06:02:23;;;;;;;6.40;3.27;;;13.40;99.90;;;;;;5080792;28;20238;-55
2023/05/18 06:04:48;;;;;;;6.57;2.87;;;13.40;99.90;;;;;;5055283;28;20187;-56
2023/05/18 06:07:14;;;;;;;5.03;2.40;;;13.50;99.90;;;;;;5072796;28;20194;-55
2023/05/18 06:09:39;;;;;;;8.30;2.73;;;13.30;99.90;;;;;;5075354;28;20214;-58
2023/05/18 06:12:06;;;;;;;7.27;2.63;;;13.40;99.90;;;;;;5080290;28;20184;-57
2023/05/18 06:14:32;;;;;;;6.20;2.80;;;13.50;99.90;;;;;;5074870;28;20240;-57
2023/05/18 06:16:57;;;;;;;4.67;2.30;;;13.60;99.90;;;;;;5066646;28;20454;-56
2023/05/18 06:19:23;;;;;;;4.23;2.10;;;13.70;99.90;;;;;;5081606;28;20184;-55
2023/05/18 06:21:48;;;;;;;4.00;2.20;;;13.70;99.90;;;;;;5063539;28;20192;-57
2023/05/18 06:24:14;;;;;;;5.00;2.10;;;13.70;99.90;;;;;;5068354;28;20283;-56
2023/05/18 06:26:40;;;;;;;5.77;2.00;;;13.80;99.90;;;;;;5063873;28;20182;-55
2023/05/18 06:29:07;;;;;;;8.20;2.30;;;13.80;99.90;;;;;;5072977;28;21048;-55
2023/05/18 06:31:33;;;;;;;4.80;2.27;;;13.90;99.90;;;;;;5070669;28;20190;-57
2023/05/18 06:33:59;;;;;;;5.43;2.10;;;13.90;99.90;;;;;;5067254;28;20472;-54
2023/05/18 06:36:25;;;;;;;6.00;2.57;;;13.90;99.90;;;;;;5068835;28;20707;-55
2023/05/18 06:38:50;;;;;;;5.70;2.90;;;13.80;99.90;;;;;;5076729;28;20633;-55
2023/05/18 06:41:16;;;;;;;7.43;2.50;;;13.80;99.90;;;;;;5071778;28;20194;-54
2023/05/18 06:43:42;;;;;;;3.00;2.10;;;13.80;99.90;;;;;;5087725;28;20175;-56
2023/05/18 06:46:07;;;;;;;5.87;2.53;;;14.00;99.90;;;;;;5084207;28;20179;-57
2023/05/18 06:48:33;;;;;;;4.10;1.77;;;14.30;99.90;;;;;;5081009;28;20176;-55
2023/05/18 06:50:58;;;;;;;7.33;2.30;;;14.50;99.90;;;;;;5074188;28;20183;-55
2023/05/18 06:53:25;;;;;;;5.70;2.00;;;14.40;99.90;;;;;;5082629;28;20184;-55
2023/05/18 06:55:50;;;;;;;8.53;2.70;;;14.40;99.90;;;;;;5074384;28;20677;-57
2023/05/18 06:58:16;;;;;;;7.60;2.13;;;14.40;99.90;;;;;;5073432;28;20560;-55
2023/05/18 07:00:42;;;;;;;6.53;2.20;;;14.40;99.90;;;;;;5073494;28;20268;-56
2023/05/18 07:03:07;;;;;;;5.27;2.13;;;14.40;99.90;;;;;;5077719;28;20239;-57
2023/05/18 07:05:33;;;;;;;5.63;2.40;;;14.50;99.90;;;;;;5079551;28;20645;-56
2023/05/18 07:07:58;;;;;;;8.40;1.97;;;14.60;99.90;;;;;;5064059;28;20191;-56
2023/05/18 07:10:24;;;;;;;5.13;2.73;;;14.70;99.90;;;;;;5079058;28;20189;-56
2023/05/18 07:12:50;;;;;;;5.27;2.23;;;14.80;99.90;;;;;;5090017;28;20183;-57
2023/05/18 07:15:15;;;;;;;3.97;2.00;;;14.80;99.90;;;;;;5075780;28;20212;-57
2023/05/18 07:17:41;;;;;;;5.40;2.13;;;15.00;99.90;;;;;;5076210;28;20187;-57
2023/05/18 07:20:07;;;;;;;2.60;1.97;;;15.20;99.90;;;;;;5074811;28;20329;-56
2023/05/18 07:22:33;;;;;;;6.47;2.10;;;15.20;99.90;;;;;;5069247;28;20194;-56
2023/05/18 07:24:59;;;;;;;6.00;1.93;;;15.20;99.90;;;;;;5071965;28;20939;-58
2023/05/18 07:27:26;;;;;;;6.50;1.77;;;15.20;99.90;;;;;;5070121;28;20442;-56
2023/05/18 07:29:52;;;;;;;4.17;2.00;;;15.10;99.90;;;;;;5077057;28;20464;-56
2023/05/18 07:32:18;;;;;;;7.00;1.90;;;15.00;99.90;;;;;;5087460;28;20480;-56
2023/05/18 07:34:45;;;;;;;3.60;1.83;;;15.00;99.90;;;;;;5080711;28;20211;-57
2023/05/18 07:37:11;;;;;;;2.70;1.70;;;15.00;99.90;;;;;;5076750;28;20445;-57
2023/05/18 07:39:37;;;;;;;4.50;1.90;;;15.10;99.90;;;;;;5078867;28;20914;-57
2023/05/18 07:42:03;;;;;;;4.13;1.70;;;15.10;99.90;;;;;;5075595;28;21104;-56
2023/05/18 07:44:29;;;;;;;5.37;2.40;;;15.00;99.90;;;;;;5073698;28;20974;-56
2023/05/18 07:46:54;;;;;;;8.73;1.90;;;14.90;99.90;;;;;;5071385;28;20458;-57
2023/05/18 07:49:22;;;;;;;4.73;1.80;;;14.70;99.90;;;;;;5073939;28;20187;-56
2023/05/18 07:51:48;;;;;;;3.87;1.63;;;14.90;99.90;;;;;;5070303;28;20192;-57
2023/05/18 07:54:14;;;;;;;4.40;2.00;;;15.30;99.90;;;;;;5066306;28;20528;-57
2023/05/18 07:56:40;;;;;;;4.13;1.73;;;15.60;99.90;;;;;;5074410;28;20474;-55
2023/05/18 07:59:07;;;;;;;5.10;2.30;;;15.80;99.90;;;;;;5083311;28;20461;-55
2023/05/18 08:01:32;;;;;;;4.63;1.97;;;15.80;99.90;;;;;;5079867;28;20450;-56
2023/05/18 08:03:58;;;;;;;3.17;1.57;;;15.60;99.90;;;;;;5076488;28;20472;-56
2023/05/18 08:06:24;;;;;;;4.40;1.87;;;15.50;99.90;;;;;;5078516;28;20191;-56
2023/05/18 08:08:49;;;;;;;4.27;1.83;;;15.30;99.90;;;;;;5083531;28;20209;-55
2023/05/18 08:11:15;;;;;;;3.87;1.60;;;15.30;99.90;;;;;;5072242;28;20275;-56
2023/05/18 08:13:40;;;;;;;7.60;1.77;;;15.40;99.90;;;;;;5076806;28;20194;-55
2023/05/18 08:16:06;;;;;;;3.80;1.73;;;15.20;99.90;;;;;;5081305;28;20183;-58
2023/05/18 08:18:32;;;;;;;3.97;1.43;;;15.00;99.90;;;;;;5085575;28;20206;-57
2023/05/18 08:20:57;;;;;;;1.53;1.30;;;15.10;99.90;;;;;;5073625;28;20185;-58
2023/05/18 08:23:24;;;;;;;6.47;1.63;;;15.30;99.90;;;;;;5076136;28;20651;-56
2023/05/18 08:25:49;;;;;;;4.30;1.80;;;15.80;99.90;;;;;;5073148;28;20196;-56
2023/05/18 08:28:15;;;;;;;5.83;1.60;;;15.90;99.90;;;;;;5079452;28;20959;-55
2023/05/18 08:30:41;;;;;;;5.90;1.80;;;15.90;99.90;;;;;;5073554;28;20210;-55
2023/05/18 08:33:07;;;;;;;4.30;2.10;;;16.20;99.90;;;;;;5077088;28;20461;-55
2023/05/18 08:35:33;;;;;;;4.13;2.30;;;16.30;99.90;;;;;;5074295;28;20816;-56
2023/05/18 08:37:59;;;;;;;4.87;1.93;;;16.00;99.90;;;;;;5080119;28;20441;-58
2023/05/18 08:40:36;;;;;;;2.90;1.87;;;15.70;99.90;;;;;;5078076;28;20176;-56
2023/05/18 08:43:07;;;;;;;6.23;2.40;;;15.30;99.90;;;;;;5074034;28;20206;-56
2023/05/18 08:45:45;;;;;;;5.27;2.20;;;15.10;99.90;;;;;;5076058;28;20442;-59
2023/05/18 08:48:11;;;;;;;4.70;2.30;;;15.00;99.90;;;;;;5076738;28;20456;-57
2023/05/18 08:50:40;;;;;;;2.97;1.90;;;15.00;99.90;;;;;;5078299;28;20437;-57
2023/05/18 08:53:05;;;;;;;4.47;2.30;;;15.20;99.90;;;;;;5073044;28;20777;-57
2023/05/18 08:55:35;;;;;;;6.97;2.23;;;15.40;99.90;;;;;;5076746;28;20488;-55
2023/05/18 08:58:03;;;;;;;3.53;2.23;;;15.60;99.90;;;;;;5068291;28;20215;-56
2023/05/18 09:00:29;;;;;;;8.17;2.60;;;15.80;99.90;;;;;;5068754;28;20800;-56
2023/05/18 09:02:55;;;;;;;4.40;2.00;;;16.10;99.90;;;;;;5078298;28;20429;-55
2023/05/18 09:05:22;;;;;;;3.97;2.07;;;16.40;99.90;;;;;;5083684;28;20249;-56
2023/05/18 09:07:51;;;;;;;4.53;2.03;;;16.50;99.90;;;;;;5073438;28;20454;-56
2023/05/18 09:10:17;;;;;;;3.67;1.97;;;16.70;99.90;;;;;;5075985;28;20495;-55
2023/05/18 09:12:45;;;;;;;3.47;1.73;;;16.90;99.90;;;;;;5071737;28;20430;-56
2023/05/18 09:15:14;;;;;;;7.00;2.43;;;17.00;99.90;;;;;;5075363;28;20497;-54
2023/05/18 09:17:40;;;;;;;3.53;2.30;;;17.40;99.90;;;;;;5083119;28;20809;-57
2023/05/18 09:20:07;;;;;;;7.07;2.20;;;17.80;99.90;;;;;;5076767;28;20465;-56
2023/05/18 09:22:39;;;;;;;5.93;2.00;;;18.40;99.90;;;;;;5078784;28;20236;-58
2023/05/18 09:25:09;;;;;;;4.63;1.93;;;18.80;99.90;;;;;;5068120;28;20446;-56
2023/05/18 09:27:35;;;;;;;6.03;2.67;;;18.10;99.90;;;;;;5082900;28;20581;-57
2023/05/18 09:30:01;;;;;;;7.90;2.20;;;17.30;99.90;;;;;;5077650;28;20484;-59
2023/05/18 09:32:28;;;;;;;4.13;2.43;;;16.80;99.90;;;;;;5078275;28;20469;-57
2023/05/18 09:34:54;;;;;;;8.90;1.93;;;16.70;99.90;;;;;;5062476;28;20606;-55
2023/05/18 09:37:21;;;;;;;3.20;1.83;;;17.10;99.90;;;;;;5078138;28;20541;-58
2023/05/18 09:40:04;;;;;;;6.93;1.93;;;17.50;99.90;;;;;;5065729;28;20533;-56
2023/05/18 09:42:41;;;;;;;4.43;2.17;;;17.40;99.90;;;;;;5069751;28;20426;-55
2023/05/18 09:45:22;;;;;;;9.17;2.27;;;17.40;99.90;;;;;;5073428;28;20517;-55
2023/05/18 09:47:49;;;;;;;5.50;1.87;;;17.10;99.90;;;;;;5068897;28;20437;-55
2023/05/18 09:50:19;;;;;;;3.13;1.90;;;17.30;99.90;;;;;;5069305;28;20488;-56
2023/05/18 09:52:46;;;;;;;4.00;1.63;;;17.70;99.90;;;;;;5069233;28;20450;-56
2023/05/18 09:55:14;;;;;;;3.60;1.70;;;18.00;99.90;;;;;;5078836;28;20465;-58
2023/05/18 09:57:42;;;;;;;3.40;2.20;;;18.00;99.90;;;;;;5079284;28;21013;-55
2023/05/18 10:00:10;;;;;;;6.23;2.53;;;17.40;99.90;;;;;;5052430;28;20459;-55
2023/05/18 10:02:47;;;;;;;5.73;1.67;;;17.40;99.90;;;;;;5048172;28;20450;-56
2023/05/18 10:05:27;;;;;;;2.77;1.73;;;17.80;99.90;;;;;;5051586;28;21049;-57
2023/05/18 10:07:54;;;;;;;4.17;2.20;;;18.20;99.90;;;;;;5056477;28;20445;-58
2023/05/18 10:10:22;;;;;;;3.53;1.43;;;18.80;99.90;;;;;;5055142;28;20513;-56
2023/05/18 10:12:49;;;;;;;5.43;1.90;;;19.30;99.90;;;;;;5053219;28;20561;-58
2023/05/18 10:15:18;;;;;;;4.53;1.53;;;19.00;99.90;;;;;;5052438;28;20505;-56
2023/05/18 10:17:44;;;;;;;3.37;1.30;;;18.80;99.90;;;;;;5054470;28;20996;-57
2023/05/18 10:20:13;;;;;;;3.10;2.10;;;19.00;99.90;;;;;;5049082;28;20907;-56
2023/05/18 10:22:39;;;;;;;3.53;1.70;;;18.90;99.90;;;;;;5054434;28;20446;-56
2023/05/18 10:25:09;;;;;;;4.43;1.83;;;18.60;99.90;;;;;;5058746;28;20441;-57
2023/05/18 10:27:35;;;;;;;6.03;1.70;;;18.90;99.90;;;;;;5058819;28;20444;-56
2023/05/18 10:30:04;;;;;;;7.50;3.07;;;19.20;99.90;;;;;;5075119;28;20449;-56
2023/05/18 10:32:35;;;;;;;3.47;1.60;;;18.90;99.90;;;;;;5071667;28;20450;-56
2023/05/18 10:35:04;;;;;;;3.87;2.00;;;18.20;99.90;;;;;;5076469;28;20476;-55
2023/05/18 10:37:31;;;;;;;3.70;1.90;;;18.10;99.90;;;;;;5067611;28;20921;-57
2023/05/18 10:39:59;;;;;;;4.70;1.93;;;18.60;99.90;;;;;;5071902;28;20486;-56
2023/05/18 10:42:25;;;;;;;4.20;1.73;;;18.70;99.90;;;;;;5072907;28;20437;-55
2023/05/18 10:44:53;;;;;;;4.93;1.90;;;18.50;99.90;;;;;;5074581;28;20492;-56
2023/05/18 10:47:19;;;;;;;5.93;2.37;;;18.20;99.90;;;;;;5083990;28;20994;-56
2023/05/18 10:49:48;;;;;;;4.50;1.60;;;18.40;99.90;;;;;;5070027;28;20449;-57
2023/05/18 10:52:16;;;;;;;6.10;1.80;;;18.60;99.90;;;;;;5063543;28;20473;-56
2023/05/18 10:54:42;;;;;;;3.57;1.60;;;19.10;99.90;;;;;;5063349;28;20473;-56
2023/05/18 10:57:13;;;;;;;5.33;1.90;;;19.50;99.90;;;;;;5067028;28;20627;-56
2023/05/18 10:59:41;;;;;;;6.73;2.30;;;19.80;99.90;;;;;;5073296;28;20528;-57
2023/05/18 11:02:14;;;;;;;4.07;1.63;;;20.20;99.90;;;;;;5064569;28;20433;-57
2023/05/18 11:04:41;;;;;;;5.53;2.23;;;20.40;99.90;;;;;;5080695;28;20462;-55
2023/05/18 11:07:13;;;;;;;4.17;1.93;;;19.70;99.90;;;;;;5071113;28;20446;-56
2023/05/18 11:09:43;;;;;;;3.00;1.70;;;18.80;99.90;;;;;;5074216;28;20463;-58
2023/05/18 11:12:13;;;;;;;3.57;1.90;;;18.50;99.90;;;;;;5072871;28;20472;-56
2023/05/18 11:14:50;;;;;;;6.80;2.30;;;18.90;99.90;;;;;;5074583;28;20822;-56
2023/05/18 11:17:22;;;;;;;3.90;1.33;;;19.00;99.90;;;;;;5076124;28;20444;-56
2023/05/18 11:22:46;;;;;;;2.77;1.50;;;18.70;99.90;;;;;;5075740;28;20484;-56
2023/05/18 11:25:27;;;;;;;4.87;2.10;;;18.60;99.90;;;;;;5070357;28;20527;-57
2023/05/18 11:28:03;;;;;;;3.40;1.77;;;18.40;99.90;;;;;;5077246;28;20432;-56
2023/05/18 11:30:32;;;;;;;3.47;1.90;;;18.80;99.90;;;;;;5078022;28;20455;-57
2023/05/18 11:33:07;;;;;;;5.53;2.20;;;18.90;99.90;;;;;;5068267;28;20442;-56
2023/05/18 11:35:33;;;;;;;4.10;1.50;;;18.70;99.90;;;;;;5072504;28;20525;-57
2023/05/18 11:38:07;;;;;;;6.27;1.70;;;18.90;99.90;;;;;;5069260;28;20454;-56
2023/05/18 11:40:57;;;;;;;3.27;1.20;;;19.60;99.90;;;;;;5072328;28;20783;-57
2023/05/18 11:43:25;;;;;;;4.30;1.53;;;19.80;99.90;;;;;;5075091;28;20938;-57
2023/05/18 11:45:58;;;;;;;4.87;1.30;;;19.90;99.90;;;;;;5072854;28;20456;-57
2023/05/18 11:48:28;;;;;;;4.03;1.40;;;20.00;99.90;;;;;;5067887;28;20444;-57
2023/05/18 11:50:55;;;;;;;3.27;1.67;;;19.60;99.90;;;;;;5085220;28;20446;-56
2023/05/18 11:53:25;;;;;;;4.83;1.60;;;19.70;99.90;;;;;;5070472;28;20453;-57
2023/05/18 11:55:55;;;;;;;4.30;2.00;;;19.90;99.90;;;;;;5074567;28;20492;-57
2023/05/18 11:58:23;;;;;;;4.10;1.37;;;20.30;99.90;;;;;;5080822;28;21008;-56
2023/05/18 12:00:50;;;;;;;3.80;1.50;;;20.60;99.90;;;;;;5081522;28;20540;-57
2023/05/18 12:03:16;;;;;;;2.83;1.40;;;21.20;99.90;;;;;;5081549;28;21036;-58
2023/05/18 12:05:48;;;;;;;2.50;1.37;;;20.70;99.90;;;;;;5070771;28;20495;-56
2023/05/18 12:08:19;;;;;;;5.13;1.30;;;20.50;99.90;;;;;;5069920;28;20445;-57
2023/05/18 12:10:48;;;;;;;3.20;1.50;;;19.70;99.90;;;;;;5074460;28;20483;-57
2023/05/18 12:13:16;;;;;;;5.43;2.00;;;19.80;99.90;;;;;;5069781;28;20450;-57
2023/05/18 12:15:43;;;;;;;3.97;1.17;;;19.90;99.90;;;;;;5075830;28;20481;-57
2023/05/18 12:18:09;;;;;;;2.80;1.33;;;19.90;99.90;;;;;;5087166;28;20948;-57
2023/05/18 12:20:38;;;;;;;3.40;1.50;;;19.40;99.90;;;;;;5073890;28;20470;-56
2023/05/18 12:23:04;;;;;;;3.90;1.50;;;19.20;99.90;;;;;;5065121;28;20442;-55
2023/05/18 12:25:29;;;;;;;1.87;1.30;;;19.30;99.90;;;;;;5079914;28;20441;-56
2023/05/18 12:27:55;;;;;;;4.60;1.60;;;19.50;99.90;;;;;;5068083;28;20184;-57
2023/05/18 12:30:23;;;;;;;3.47;1.10;;;19.80;99.90;;;;;;5068716;28;20350;-57
2023/05/18 12:32:54;;;;;;;5.73;1.87;;;20.00;99.90;;;;;;5071181;28;20222;-56
2023/05/18 12:35:27;;;;;;;3.87;1.50;;;19.90;99.90;;;;;;5079605;28;20476;-56
2023/05/18 12:38:02;;;;;;;5.70;1.90;;;20.00;99.90;;;;;;5079818;28;20780;-57
2023/05/18 12:40:47;;;;;;;2.50;1.40;;;20.20;99.90;;;;;;5066811;28;20466;-56
2023/05/18 12:43:13;;;;;;;3.27;1.50;;;20.30;99.90;;;;;;5068827;28;20445;-56
2023/05/18 12:45:39;;;;;;;4.17;2.00;;;20.30;99.90;;;;;;5067807;28;20769;-56
2023/05/18 12:48:10;;;;;;;2.80;1.20;;;20.30;99.90;;;;;;5068607;28;20642;-57
2023/05/18 12:50:51;;;;;;;4.90;1.70;;;20.60;99.90;;;;;;5072960;28;20438;-55
2023/05/18 12:53:18;;;;;;;4.23;1.60;;;21.00;99.90;;;;;;5072819;28;20469;-56